createdAt,value
2019-03-22T00:02:21.641Z,8.90
2019-03-22T00:04:48.855Z,8.77
2019-03-22T00:07:16.474Z,8.70
2019-03-22T00:09:43.925Z,8.97
2019-03-22T00:12:11.489Z,9.23
2019-03-22T00:14:38.697Z,9.00
2019-03-22T00:17:05.917Z,8.73
2019-03-22T00:19:33.545Z,8.80
2019-03-22T00:22:00.781Z,9.53
2019-03-22T00:24:27.990Z,8.77
2019-03-22T00:26:55.189Z,9.33
2019-03-22T00:29:22.415Z,9.23
2019-03-22T00:31:49.636Z,9.67
2019-03-22T00:34:17.149Z,9.50
2019-03-22T00:36:44.704Z,9.47
2019-03-22T00:39:11.912Z,8.87
2019-03-22T00:41:39.419Z,9.17
2019-03-22T00:44:06.649Z,8.80
2019-03-22T00:46:33.849Z,9.53
2019-03-22T00:49:01.082Z,8.67
2019-03-22T00:51:28.300Z,9.20
2019-03-22T00:53:55.504Z,9.37
2019-03-22T00:56:23.031Z,9.03
2019-03-22T00:58:50.233Z,8.57
2019-03-22T01:01:17.737Z,9.17
2019-03-22T01:03:45.290Z,9.57
2019-03-22T01:06:12.753Z,9.97
2019-03-22T01:08:39.969Z,10.43
2019-03-22T01:11:07.459Z,9.63
2019-03-22T01:13:34.690Z,10.57
2019-03-22T01:16:02.272Z,10.37
2019-03-22T01:18:29.827Z,9.87
2019-03-22T01:20:57.067Z,10.23
2019-03-22T01:23:24.639Z,10.27
2019-03-22T01:25:51.840Z,9.37
2019-03-22T01:28:19.077Z,10.20
2019-03-22T01:30:46.291Z,10.03
2019-03-22T01:33:13.850Z,9.87
2019-03-22T01:35:41.053Z,9.83
2019-03-22T01:38:08.277Z,9.93
2019-03-22T01:40:35.522Z,10.60
2019-03-22T01:43:03.066Z,10.70
2019-03-22T01:45:30.273Z,10.30
2019-03-22T01:47:57.770Z,10.13
2019-03-22T01:50:24.998Z,10.10
2019-03-22T01:52:52.472Z,10.53
2019-03-22T01:55:19.704Z,10.27
2019-03-22T01:57:53.070Z,10.33
2019-03-22T02:00:16.897Z,10.17
2019-03-22T02:02:44.116Z,9.57
2019-03-22T02:05:11.395Z,10.63
2019-03-22T02:07:38.629Z,10.63
2019-03-22T02:10:07.380Z,10.13
2019-03-22T02:12:34.888Z,9.67
2019-03-22T02:15:02.446Z,9.57
2019-03-22T02:17:29.653Z,9.50
2019-03-22T02:19:56.882Z,8.80
2019-03-22T02:22:24.085Z,9.33
2019-03-22T02:24:51.302Z,8.30
2019-03-22T02:27:18.542Z,9.43
2019-03-22T02:29:45.841Z,9.20
2019-03-22T02:32:13.413Z,9.80
2019-03-22T02:34:40.643Z,9.73
2019-03-22T02:37:07.881Z,9.67
2019-03-22T02:39:35.151Z,9.93
2019-03-22T02:42:02.720Z,9.83
2019-03-22T02:44:30.006Z,10.47
2019-03-22T02:46:57.214Z,9.67
2019-03-22T02:49:24.434Z,10.27
2019-03-22T02:51:51.671Z,10.17
2019-03-22T02:54:18.918Z,10.60
2019-03-22T02:56:46.213Z,10.77
2019-03-22T02:59:13.437Z,10.63
2019-03-22T03:01:40.659Z,10.40
2019-03-22T03:04:08.191Z,10.63
2019-03-22T03:06:35.437Z,10.87
2019-03-22T03:09:02.661Z,11.43
2019-03-22T03:11:29.899Z,11.53
2019-03-22T03:13:57.115Z,11.10
2019-03-22T03:16:24.339Z,10.33
2019-03-22T03:18:51.569Z,10.37
2019-03-22T03:21:19.058Z,10.50
2019-03-22T03:23:46.298Z,10.50
2019-03-22T03:26:13.502Z,11.17
2019-03-22T03:28:40.763Z,11.40
2019-03-22T03:31:08.269Z,10.80
2019-03-22T03:33:35.477Z,11.33
2019-03-22T03:36:02.740Z,11.37
2019-03-22T03:38:30.218Z,10.20
2019-03-22T03:40:57.502Z,10.73
2019-03-22T03:43:24.733Z,9.93
2019-03-22T03:45:51.982Z,9.67
2019-03-22T03:48:19.197Z,10.33
2019-03-22T03:50:46.431Z,10.07
2019-03-22T03:53:13.637Z,10.30
2019-03-22T03:55:40.882Z,10.60
2019-03-22T03:58:08.100Z,11.00
2019-03-22T04:00:35.386Z,10.47
2019-03-22T04:03:02.695Z,10.30
2019-03-22T04:05:29.939Z,10.13
2019-03-22T04:07:57.163Z,10.77
2019-03-22T04:10:24.377Z,10.40
2019-03-22T04:12:51.649Z,10.93
2019-03-22T04:15:19.293Z,11.00
2019-03-22T04:17:46.514Z,11.27
2019-03-22T04:20:13.726Z,11.17
2019-03-22T04:22:40.975Z,10.70
2019-03-22T04:25:08.440Z,10.47
2019-03-22T04:27:35.982Z,11.33
2019-03-22T04:30:04.246Z,11.77
2019-03-22T04:32:31.457Z,11.50
2019-03-22T04:34:58.957Z,11.10
2019-03-22T04:37:26.167Z,11.30
2019-03-22T04:39:53.660Z,11.73
2019-03-22T04:42:20.880Z,12.50
2019-03-22T04:44:48.109Z,11.33
2019-03-22T04:47:16.161Z,11.40
2019-03-22T04:49:43.781Z,12.13
2019-03-22T04:52:11.083Z,11.10
2019-03-22T04:54:39.675Z,10.67
2019-03-22T04:57:08.516Z,11.27
2019-03-22T04:59:36.193Z,10.80
2019-03-22T05:02:04.600Z,10.50
2019-03-22T05:04:31.883Z,11.10
2019-03-22T05:06:59.190Z,10.83
2019-03-22T05:09:27.938Z,10.67
2019-03-22T05:11:56.246Z,11.40
2019-03-22T05:14:23.529Z,10.60
2019-03-22T05:16:51.607Z,10.10
2019-03-22T05:19:20.502Z,10.03
2019-03-22T05:21:48.702Z,10.43
2019-03-22T05:24:18.321Z,9.73
2019-03-22T05:26:47.074Z,10.37
2019-03-22T05:29:14.308Z,10.33
2019-03-22T05:31:48.731Z,11.10
2019-03-22T05:34:15.962Z,11.80
2019-03-22T05:36:43.486Z,12.27
2019-03-22T05:39:11.039Z,11.93
2019-03-22T05:41:38.427Z,11.57
2019-03-22T05:44:05.662Z,10.33
2019-03-22T05:46:32.865Z,11.33
2019-03-22T05:49:00.099Z,10.73
2019-03-22T05:51:27.386Z,10.67
2019-03-22T05:53:54.954Z,10.87
2019-03-22T05:56:22.198Z,10.53
2019-03-22T05:58:49.401Z,10.67
2019-03-22T06:01:16.636Z,9.83
2019-03-22T06:03:43.853Z,10.10
2019-03-22T06:06:11.089Z,9.53
2019-03-22T06:08:38.566Z,9.60
2019-03-22T06:11:05.794Z,9.70
2019-03-22T06:13:33.026Z,9.73
2019-03-22T06:16:00.249Z,9.10
2019-03-22T06:18:27.487Z,8.07
2019-03-22T06:20:54.714Z,9.10
2019-03-22T06:23:22.282Z,9.70
2019-03-22T06:25:49.512Z,9.37
2019-03-22T06:28:16.983Z,9.47
2019-03-22T06:30:44.556Z,8.97
2019-03-22T06:33:11.762Z,8.87
2019-03-22T06:35:38.994Z,8.87
2019-03-22T06:38:06.498Z,9.07
2019-03-22T06:40:33.746Z,8.33
2019-03-22T06:43:00.962Z,9.27
2019-03-22T06:45:28.190Z,9.40
2019-03-22T06:47:55.714Z,8.83
2019-03-22T06:50:22.942Z,8.03
2019-03-22T06:52:52.048Z,8.13
2019-03-22T06:55:19.547Z,7.87
2019-03-22T06:57:46.746Z,8.03
2019-03-22T07:00:13.981Z,7.93
2019-03-22T07:02:41.471Z,7.97
2019-03-22T07:05:08.771Z,7.50
2019-03-22T07:07:35.985Z,7.67
2019-03-22T07:10:05.075Z,7.50
2019-03-22T07:12:32.526Z,7.03
2019-03-22T07:14:59.765Z,7.30
2019-03-22T07:17:26.991Z,7.23
2019-03-22T07:19:54.212Z,7.00
2019-03-22T07:22:21.502Z,7.23
2019-03-22T07:24:49.035Z,7.40
2019-03-22T07:27:16.550Z,6.93
2019-03-22T07:29:44.107Z,7.53
2019-03-22T07:32:11.338Z,7.60
2019-03-22T07:34:38.919Z,7.93
2019-03-22T07:37:06.479Z,7.13
2019-03-22T07:39:34.031Z,7.77
2019-03-22T07:42:01.599Z,7.63
2019-03-22T07:44:28.875Z,7.47
2019-03-22T07:46:56.402Z,7.30
2019-03-22T07:49:23.619Z,6.97
2019-03-22T07:51:51.111Z,7.37
2019-03-22T07:54:18.354Z,7.17
2019-03-22T07:56:45.923Z,7.03
2019-03-22T07:59:13.139Z,7.73
2019-03-22T08:01:40.395Z,7.10
2019-03-22T08:04:07.635Z,7.03
2019-03-22T08:06:35.141Z,7.70
2019-03-22T08:09:03.840Z,6.97
2019-03-22T08:11:31.374Z,7.40
2019-03-22T08:13:58.934Z,7.20
2019-03-22T08:16:26.184Z,6.37
2019-03-22T08:18:53.392Z,6.90
2019-03-22T08:21:20.630Z,6.97
2019-03-22T08:23:48.143Z,6.80
2019-03-22T08:26:15.489Z,6.70
2019-03-22T08:28:43.047Z,6.93
2019-03-22T08:31:10.262Z,6.90
2019-03-22T08:33:37.523Z,7.50
2019-03-22T08:36:05.032Z,7.77
2019-03-22T08:38:32.236Z,7.63
2019-03-22T08:40:59.465Z,8.13
2019-03-22T08:43:26.676Z,7.90
2019-03-22T08:45:54.047Z,7.60
2019-03-22T08:48:21.312Z,7.13
2019-03-22T08:50:48.835Z,7.70
2019-03-22T08:53:16.066Z,7.10
2019-03-22T08:55:43.649Z,7.33
2019-03-22T08:58:10.841Z,6.77
2019-03-22T09:00:39.876Z,6.33
2019-03-22T09:03:07.392Z,6.70
2019-03-22T09:05:34.693Z,6.47
2019-03-22T09:08:01.948Z,6.83
2019-03-22T09:10:29.232Z,7.17
2019-03-22T09:12:56.472Z,6.90
2019-03-22T09:15:24.006Z,6.90
2019-03-22T09:17:51.579Z,7.07
2019-03-22T09:20:18.833Z,7.30
2019-03-22T09:22:46.391Z,6.67
2019-03-22T09:25:13.609Z,6.80
2019-03-22T09:27:42.206Z,6.97
2019-03-22T09:30:11.659Z,6.47
2019-03-22T09:32:38.921Z,7.40
2019-03-22T09:35:06.817Z,6.80
2019-03-22T09:37:34.107Z,7.47
2019-03-22T09:40:01.405Z,7.10
2019-03-22T09:42:28.942Z,6.97
2019-03-22T09:44:56.451Z,7.10
2019-03-22T09:47:23.655Z,6.53
2019-03-22T09:49:51.338Z,6.57
2019-03-22T09:52:18.808Z,6.70
2019-03-22T09:54:46.282Z,6.90
2019-03-22T09:57:14.085Z,7.17
2019-03-22T09:59:41.718Z,6.63
2019-03-22T10:02:08.914Z,6.87
2019-03-22T10:04:36.126Z,6.87
2019-03-22T10:07:03.373Z,13.33
2019-03-22T10:09:30.597Z,10.10
2019-03-22T10:11:57.858Z,9.20
2019-03-22T10:14:25.161Z,9.80
2019-03-22T10:16:52.775Z,16.97
2019-03-22T10:19:20.370Z,14.97
2019-03-22T10:21:47.708Z,7.13
2019-03-22T10:24:14.949Z,7.40
2019-03-22T10:26:42.483Z,8.00
2019-03-22T10:29:09.753Z,8.13
2019-03-22T10:31:37.918Z,7.33
2019-03-22T10:34:05.290Z,7.83
2019-03-22T10:36:32.925Z,7.20
2019-03-22T10:39:00.142Z,7.20
2019-03-22T10:41:27.795Z,7.10
2019-03-22T10:43:55.046Z,7.43
2019-03-22T10:46:22.596Z,7.57
2019-03-22T10:48:49.861Z,6.67
2019-03-22T10:51:17.388Z,7.40
2019-03-22T10:53:44.942Z,7.28
2019-03-22T10:56:12.214Z,6.33
2019-03-22T10:58:39.930Z,7.05
2019-03-22T11:01:08.389Z,6.00
2019-03-22T11:03:35.955Z,6.35
2019-03-22T11:06:03.531Z,6.15
2019-03-22T11:08:30.773Z,6.55
2019-03-22T11:10:57.986Z,6.40
2019-03-22T11:13:25.587Z,6.47
2019-03-22T11:15:52.834Z,5.95
2019-03-22T11:18:20.048Z,6.60
2019-03-22T11:20:47.547Z,6.67
2019-03-22T11:23:15.103Z,4.90
2019-03-22T11:25:42.414Z,4.50
2019-03-22T11:28:11.920Z,4.60
2019-03-22T11:30:38.672Z,4.07
2019-03-22T11:33:06.163Z,4.77
2019-03-22T11:35:33.406Z,4.35
2019-03-22T11:38:00.627Z,3.98
2019-03-22T11:40:27.868Z,4.00
2019-03-22T11:42:55.479Z,4.42
2019-03-22T11:45:24.590Z,4.10
2019-03-22T11:47:52.426Z,4.47
2019-03-22T11:50:19.673Z,4.00
2019-03-22T11:52:47.351Z,3.63
2019-03-22T11:55:14.642Z,4.40
2019-03-22T11:57:41.881Z,4.00
2019-03-22T12:00:16.882Z,4.10
2019-03-22T12:02:44.199Z,3.60
2019-03-22T12:05:11.682Z,3.80
2019-03-22T12:07:38.918Z,3.60
2019-03-22T12:10:07.105Z,3.93
2019-03-22T12:12:34.363Z,3.77
2019-03-22T12:15:01.574Z,4.13
2019-03-22T12:17:28.807Z,4.07
2019-03-22T12:19:56.334Z,3.80
2019-03-22T12:22:23.878Z,3.57
2019-03-22T12:24:51.442Z,3.50
2019-03-22T12:27:18.667Z,3.40
2019-03-22T12:29:45.899Z,3.80
2019-03-22T12:32:13.503Z,3.53
2019-03-22T12:34:40.752Z,4.10
2019-03-22T12:37:07.954Z,3.93
2019-03-22T12:39:35.183Z,3.87
2019-03-22T12:42:02.714Z,3.63
2019-03-22T12:44:29.942Z,3.80
2019-03-22T12:46:57.522Z,3.50
2019-03-22T12:49:24.765Z,3.97
2019-03-22T12:51:52.021Z,4.40
2019-03-22T12:54:19.586Z,4.20
2019-03-22T12:56:46.806Z,4.23
2019-03-22T12:59:14.037Z,3.77
2019-03-22T13:01:41.541Z,3.47
2019-03-22T13:04:08.742Z,3.43
2019-03-22T13:06:36.248Z,3.40
2019-03-22T13:09:05.021Z,3.40
2019-03-22T13:11:32.487Z,3.17
2019-03-22T13:13:59.723Z,3.43
2019-03-22T13:16:27.198Z,3.40
2019-03-22T13:18:54.425Z,3.70
2019-03-22T13:21:21.638Z,3.90
2019-03-22T13:23:48.875Z,3.80
2019-03-22T13:26:16.104Z,3.73
2019-03-22T13:28:43.663Z,3.77
2019-03-22T13:31:11.748Z,3.80
2019-03-22T13:33:39.402Z,3.50
2019-03-22T13:36:06.614Z,3.83
2019-03-22T13:38:33.858Z,3.07
2019-03-22T13:41:01.289Z,3.77
2019-03-22T13:43:28.506Z,3.33
2019-03-22T13:45:55.717Z,3.50
2019-03-22T13:48:23.199Z,3.60
2019-03-22T13:50:50.490Z,3.80
2019-03-22T13:53:18.018Z,3.90
2019-03-22T13:55:45.471Z,3.10
2019-03-22T13:58:13.039Z,3.80
2019-03-22T14:00:40.273Z,3.50
2019-03-22T14:03:07.499Z,3.43
2019-03-22T14:05:34.722Z,3.20
2019-03-22T14:08:01.964Z,3.53
2019-03-22T14:10:31.021Z,3.80
2019-03-22T14:12:59.623Z,3.40
2019-03-22T14:15:27.163Z,3.90
2019-03-22T14:17:54.730Z,4.03
2019-03-22T14:20:21.963Z,3.30
2019-03-22T14:22:49.185Z,4.10
2019-03-22T14:25:16.410Z,3.90
2019-03-22T14:27:43.652Z,4.07
2019-03-22T14:30:11.129Z,3.20
2019-03-22T14:32:38.331Z,3.83
2019-03-22T14:35:07.098Z,3.70
2019-03-22T14:37:34.341Z,3.37
2019-03-22T14:40:01.591Z,4.10
2019-03-22T14:42:28.794Z,4.00
2019-03-22T14:44:56.335Z,3.30
2019-03-22T14:47:25.042Z,3.37
2019-03-22T14:49:52.314Z,3.70
2019-03-22T14:52:19.591Z,3.77
2019-03-22T14:54:46.829Z,4.00
2019-03-22T14:57:14.841Z,4.10
2019-03-22T14:59:42.427Z,3.37
2019-03-22T15:02:10.899Z,3.30
2019-03-22T15:04:38.352Z,5.47
2019-03-22T15:07:05.960Z,3.30
2019-03-22T15:09:33.565Z,3.30
2019-03-22T15:12:01.132Z,4.53
2019-03-22T15:14:36.053Z,4.03
2019-03-22T15:17:14.163Z,3.50
2019-03-22T15:19:48.735Z,3.93
2019-03-22T15:22:26.695Z,3.40
2019-03-22T15:25:07.758Z,3.27
2019-03-22T15:27:39.482Z,2.47
2019-03-22T15:30:26.221Z,3.13
2019-03-22T15:33:11.703Z,3.40
2019-03-22T15:35:55.819Z,3.00
2019-03-22T15:38:30.816Z,2.73
2019-03-22T15:40:58.211Z,2.70
2019-03-22T15:43:25.794Z,2.47
2019-03-22T15:45:53.011Z,2.60
2019-03-22T15:48:20.258Z,2.20
2019-03-22T15:50:47.478Z,2.67
2019-03-22T15:53:14.698Z,3.03
2019-03-22T15:55:42.263Z,2.40
2019-03-22T15:58:09.473Z,3.10
2019-03-22T16:00:36.698Z,3.07
2019-03-22T16:03:04.589Z,3.00
2019-03-22T16:05:32.078Z,3.73
2019-03-22T16:07:59.293Z,3.23
2019-03-22T16:10:26.560Z,3.87
2019-03-22T16:12:53.798Z,4.10
2019-03-22T16:15:21.011Z,2.67
2019-03-22T16:17:48.265Z,2.80
2019-03-22T16:20:15.469Z,2.73
2019-03-22T16:22:42.769Z,2.63
2019-03-22T16:25:10.871Z,2.93
2019-03-22T16:27:38.106Z,2.33
2019-03-22T16:30:06.699Z,3.10
2019-03-22T16:32:33.911Z,3.10
2019-03-22T16:35:01.650Z,2.60
2019-03-22T16:37:28.871Z,2.70
2019-03-22T16:39:56.364Z,3.07
2019-03-22T16:42:23.822Z,2.50
2019-03-22T16:44:51.051Z,2.30
2019-03-22T16:47:18.249Z,2.50
2019-03-22T16:49:45.499Z,2.20
2019-03-22T16:52:13.026Z,2.87
2019-03-22T16:54:40.488Z,5.40
2019-03-22T16:57:07.729Z,6.33
2019-03-22T16:59:35.190Z,3.90
2019-03-22T17:02:02.464Z,2.70
2019-03-22T17:04:29.694Z,2.30
2019-03-22T17:06:56.926Z,3.63
2019-03-22T17:09:24.404Z,3.10
2019-03-22T17:11:51.643Z,2.87
2019-03-22T17:14:18.870Z,2.63
2019-03-22T17:16:46.077Z,2.20
2019-03-22T17:19:13.612Z,3.00
2019-03-22T17:21:40.820Z,2.30
2019-03-22T17:24:08.318Z,14.30
2019-03-22T17:26:35.538Z,14.30
2019-03-22T17:29:03.027Z,3.00
2019-03-22T17:31:30.787Z,2.87
2019-03-22T17:33:58.002Z,4.70
2019-03-22T17:36:25.219Z,4.20
2019-03-22T17:38:52.469Z,2.80
2019-03-22T17:41:19.669Z,2.70
2019-03-22T17:43:47.355Z,2.30
2019-03-22T17:46:14.566Z,2.90
2019-03-22T17:48:42.170Z,2.40
2019-03-22T17:51:09.450Z,2.30
2019-03-22T17:53:38.457Z,2.77
2019-03-22T17:56:05.978Z,2.47
2019-03-22T17:58:33.221Z,2.70
2019-03-22T18:01:00.456Z,2.17
2019-03-22T18:03:28.031Z,2.40
2019-03-22T18:05:55.266Z,2.50
2019-03-22T18:08:22.473Z,2.20
2019-03-22T18:10:49.705Z,2.77
2019-03-22T18:13:16.934Z,2.97
2019-03-22T18:15:44.162Z,4.67
2019-03-22T18:18:11.384Z,2.87
2019-03-22T18:20:38.882Z,3.30
2019-03-22T18:23:06.122Z,4.17
2019-03-22T18:25:33.599Z,2.97
2019-03-22T18:28:00.805Z,2.87
2019-03-22T18:30:28.306Z,2.37
2019-03-22T18:32:55.722Z,3.27
2019-03-22T18:35:23.325Z,2.77
2019-03-22T18:37:50.549Z,2.50
2019-03-22T18:40:18.127Z,2.57
2019-03-22T18:43:10.450Z,2.50
2019-03-22T18:45:37.519Z,2.10
2019-03-22T18:48:04.764Z,2.90
2019-03-22T18:50:32.002Z,2.50
2019-03-22T18:52:59.203Z,3.00
2019-03-22T18:55:26.461Z,2.70
2019-03-22T18:57:54.950Z,2.70
2019-03-22T19:00:22.450Z,3.13
2019-03-22T19:02:49.695Z,2.63
2019-03-22T19:05:16.910Z,3.17
2019-03-22T19:07:44.163Z,2.70
2019-03-22T19:10:14.846Z,2.57
2019-03-22T19:12:42.084Z,3.57
2019-03-22T19:15:15.234Z,3.20
2019-03-22T19:17:42.545Z,2.97
2019-03-22T19:20:13.306Z,3.10
2019-03-22T19:22:40.551Z,3.10
2019-03-22T19:25:08.334Z,2.97
2019-03-22T19:27:35.602Z,3.53
2019-03-22T19:30:04.650Z,2.87
2019-03-22T19:32:32.178Z,3.23
2019-03-22T19:34:59.409Z,2.97
2019-03-22T19:37:26.899Z,3.27
2019-03-22T19:39:54.452Z,3.13
2019-03-22T19:42:21.666Z,4.13
2019-03-22T19:44:48.906Z,5.10
2019-03-22T19:47:16.118Z,5.70
2019-03-22T19:49:43.321Z,4.80
2019-03-22T19:52:10.817Z,4.43
2019-03-22T19:54:38.119Z,4.70
2019-03-22T19:57:05.425Z,4.60
2019-03-22T19:59:32.675Z,5.03
2019-03-22T20:01:59.939Z,4.30
2019-03-22T20:04:27.150Z,4.00
2019-03-22T20:06:54.425Z,4.60
2019-03-22T20:09:21.614Z,4.87
2019-03-22T20:11:51.233Z,4.37
2019-03-22T20:14:18.461Z,4.33
2019-03-22T20:16:45.667Z,3.90
2019-03-22T20:19:12.947Z,4.37
2019-03-22T20:21:40.494Z,4.43
2019-03-22T20:24:08.046Z,4.33
2019-03-22T20:26:35.610Z,4.00
2019-03-22T20:29:02.833Z,4.30
2019-03-22T20:31:30.419Z,4.83
2019-03-22T20:33:57.630Z,4.07
2019-03-22T20:36:25.132Z,4.50
2019-03-22T20:38:52.327Z,4.60
2019-03-22T20:41:19.621Z,4.77
2019-03-22T20:43:46.858Z,4.70
2019-03-22T20:46:14.433Z,4.50
2019-03-22T20:48:41.659Z,4.83
2019-03-22T20:51:08.861Z,4.70
2019-03-22T20:53:36.396Z,4.33
2019-03-22T20:56:03.601Z,4.10
2019-03-22T20:58:31.360Z,4.57
2019-03-22T21:00:58.663Z,4.00
2019-03-22T21:03:25.869Z,4.63
2019-03-22T21:05:53.127Z,4.80
2019-03-22T21:08:20.731Z,4.63
2019-03-22T21:10:48.364Z,4.80
2019-03-22T21:13:16.665Z,4.53
2019-03-22T21:15:43.945Z,4.83
2019-03-22T21:18:12.196Z,4.97
2019-03-22T21:20:39.543Z,4.93
2019-03-22T21:23:06.766Z,5.70
2019-03-22T21:25:45.592Z,5.47
2019-03-22T21:28:04.087Z,5.57
2019-03-22T21:30:31.310Z,5.03
2019-03-22T21:33:01.367Z,5.27
2019-03-22T22:09:16.914Z,5.83
2019-03-22T22:11:44.479Z,5.50
2019-03-22T22:14:11.690Z,5.77
2019-03-22T22:16:38.918Z,5.10
2019-03-22T22:19:06.146Z,5.80
2019-03-22T22:21:33.354Z,5.90
2019-03-22T22:24:01.654Z,6.23
2019-03-22T22:26:28.881Z,6.70
2019-03-22T22:28:56.471Z,6.40
2019-03-22T22:31:23.718Z,6.57
2019-03-22T22:33:50.946Z,5.50
2019-03-22T22:36:18.246Z,6.20
2019-03-22T22:38:45.466Z,6.17
2019-03-22T22:41:13.038Z,7.33
2019-03-22T22:43:40.254Z,6.50
2019-03-22T22:46:07.498Z,6.33
2019-03-22T22:48:34.742Z,6.13
2019-03-22T22:51:01.980Z,5.73
2019-03-22T22:53:29.612Z,6.07
2019-03-22T22:55:57.150Z,5.87
2019-03-22T22:58:24.367Z,6.37
2019-03-22T23:00:51.591Z,5.67
2019-03-22T23:03:19.113Z,5.90
2019-03-22T23:05:46.823Z,6.17
2019-03-22T23:08:14.534Z,6.43
2019-03-22T23:10:41.808Z,6.03
2019-03-22T23:13:09.110Z,6.30
2019-03-22T23:15:36.703Z,5.97
2019-03-22T23:18:03.937Z,6.33
2019-03-22T23:20:31.149Z,5.93
2019-03-22T23:22:58.435Z,7.20
2019-03-22T23:25:25.662Z,7.87
2019-03-22T23:27:52.895Z,7.13
2019-03-22T23:30:20.540Z,6.50
2019-03-22T23:32:47.842Z,6.43
2019-03-22T23:35:15.077Z,6.20
2019-03-22T23:37:42.291Z,6.53
2019-03-22T23:40:09.586Z,7.30
2019-03-22T23:42:36.806Z,7.23
2019-03-22T23:45:08.185Z,7.30
2019-03-22T23:47:35.394Z,6.80
2019-03-22T23:50:03.181Z,7.33
2019-03-22T23:52:30.694Z,7.93
2019-03-22T23:54:58.246Z,8.00
2019-03-22T23:57:25.462Z,8.20
2019-03-22T23:59:54.844Z,7.40
